createdAt,value
2018-12-06T00:04:55.577Z,88.08
2018-12-06T00:10:58.931Z,87.32
2018-12-06T00:17:02.285Z,87.92
2018-12-06T00:23:05.668Z,86.87
2018-12-06T00:29:08.989Z,87.03
2018-12-06T00:35:12.332Z,86.00
2018-12-06T00:41:15.664Z,85.38
2018-12-06T00:47:19.001Z,85.82
2018-12-06T00:53:22.424Z,85.92
2018-12-06T00:59:25.755Z,85.70
2018-12-06T01:05:29.086Z,85.32
2018-12-06T01:11:32.706Z,85.74
2018-12-06T01:17:36.057Z,85.24
2018-12-06T01:23:39.397Z,85.46
2018-12-06T01:29:57.075Z,84.94
2018-12-06T01:36:00.398Z,84.40
2018-12-06T01:42:03.725Z,84.11
2018-12-06T01:48:07.307Z,84.36
2018-12-06T01:54:10.636Z,83.06
2018-12-06T02:00:14.827Z,83.67
2018-12-06T02:06:18.135Z,84.23
2018-12-06T02:12:21.460Z,84.03
2018-12-06T02:18:24.788Z,83.90
2018-12-06T02:24:28.110Z,84.68
2018-12-06T02:30:31.431Z,83.67
2018-12-06T02:36:34.793Z,83.14
2018-12-06T02:42:38.130Z,83.02
2018-12-06T02:48:41.460Z,83.26
2018-12-06T02:54:44.825Z,83.85
2018-12-06T03:00:48.163Z,82.96
2018-12-06T03:06:51.486Z,83.36
2018-12-06T03:12:54.807Z,83.42
2018-12-06T03:18:58.144Z,83.22
2018-12-06T03:25:01.672Z,83.65
2018-12-06T03:31:05.122Z,83.79
2018-12-06T03:37:08.452Z,83.68
2018-12-06T03:43:11.822Z,83.38
2018-12-06T03:49:15.147Z,83.43
2018-12-06T03:55:18.480Z,83.52
2018-12-06T04:01:21.805Z,83.00
2018-12-06T04:07:25.152Z,83.78
2018-12-06T04:13:28.488Z,83.46
2018-12-06T04:19:31.827Z,83.85
2018-12-06T04:25:35.154Z,83.98
2018-12-06T04:31:38.516Z,83.42
2018-12-06T04:37:41.840Z,83.72
2018-12-06T04:43:45.184Z,83.54
2018-12-06T04:49:48.514Z,83.74
2018-12-06T04:55:51.912Z,84.01
2018-12-06T05:01:55.288Z,84.44
2018-12-06T05:07:58.616Z,84.36
2018-12-06T05:14:01.941Z,84.66
2018-12-06T05:20:06.006Z,85.30
2018-12-06T05:26:09.352Z,84.98
2018-12-06T05:32:12.679Z,85.90
2018-12-06T05:38:16.015Z,85.35
2018-12-06T05:44:19.346Z,85.53
2018-12-06T05:50:22.662Z,85.90
2018-12-06T05:56:25.985Z,85.69
2018-12-06T06:02:29.313Z,85.74
2018-12-06T06:08:32.653Z,86.07
2018-12-06T06:14:36.742Z,85.97
2018-12-06T06:20:40.091Z,86.61
2018-12-06T06:26:43.437Z,85.94
2018-12-06T06:32:46.770Z,86.47
2018-12-06T06:38:50.095Z,86.17
2018-12-06T06:44:53.433Z,86.02
2018-12-06T06:50:56.762Z,86.21
2018-12-06T06:57:00.108Z,86.11
2018-12-06T07:03:03.531Z,85.48
2018-12-06T07:09:08.731Z,85.84
2018-12-06T07:15:12.087Z,86.68
2018-12-06T07:21:15.424Z,86.00
2018-12-06T07:27:18.759Z,86.31
2018-12-06T07:33:22.199Z,86.41
2018-12-06T07:39:25.527Z,86.95
2018-12-06T07:45:29.055Z,86.83
2018-12-06T07:51:32.540Z,86.30
2018-12-06T07:57:35.920Z,86.61
2018-12-06T08:03:39.244Z,86.49
2018-12-06T08:09:42.572Z,86.48
2018-12-06T08:15:45.907Z,86.48
2018-12-06T08:21:49.239Z,86.19
2018-12-06T08:27:52.571Z,86.31
2018-12-06T08:33:55.902Z,86.39
2018-12-06T08:39:59.230Z,86.61
2018-12-06T08:46:02.568Z,86.69
2018-12-06T08:52:05.985Z,86.29
2018-12-06T08:58:09.316Z,86.66
2018-12-06T09:04:12.640Z,86.86
2018-12-06T09:10:15.976Z,86.29
2018-12-06T09:16:19.305Z,87.24
2018-12-06T09:22:24.416Z,87.78
2018-12-06T09:28:27.994Z,87.69
2018-12-06T09:34:31.371Z,88.86
2018-12-06T09:40:34.715Z,89.40
2018-12-06T09:46:38.044Z,89.95
2018-12-06T09:52:41.383Z,89.36
2018-12-06T09:58:44.790Z,89.86
2018-12-06T10:04:48.134Z,90.06
2018-12-06T10:10:51.473Z,91.32
2018-12-06T10:16:55.011Z,92.41
2018-12-06T10:22:58.358Z,92.77
2018-12-06T10:29:01.699Z,92.78
2018-12-06T10:35:05.670Z,92.29
2018-12-06T10:41:08.987Z,91.69
2018-12-06T10:47:12.312Z,92.26
2018-12-06T10:53:15.641Z,91.88
2018-12-06T10:59:18.974Z,93.25
2018-12-06T11:05:22.306Z,92.58
2018-12-06T11:11:26.452Z,92.45
2018-12-06T11:17:29.984Z,93.05
2018-12-06T11:23:33.313Z,92.82
2018-12-06T11:29:36.637Z,93.97
2018-12-06T11:35:40.867Z,94.04
2018-12-06T11:41:44.326Z,93.88
2018-12-06T11:47:47.645Z,93.49
2018-12-06T11:53:50.976Z,93.54
2018-12-06T11:59:54.301Z,92.86
2018-12-06T12:05:58.803Z,93.16
2018-12-06T12:12:02.511Z,93.09
2018-12-06T12:18:05.916Z,93.33
2018-12-06T12:24:09.327Z,92.67
2018-12-06T12:30:12.750Z,92.12
2018-12-06T12:36:16.083Z,92.99
2018-12-06T12:42:19.408Z,92.94
2018-12-06T12:48:22.727Z,93.12
2018-12-06T12:54:26.049Z,93.37
2018-12-06T13:00:29.468Z,93.84
2018-12-06T13:06:32.789Z,93.58
2018-12-06T13:12:36.175Z,93.28
2018-12-06T13:18:39.516Z,93.56
2018-12-06T13:24:42.873Z,93.79
2018-12-06T13:30:46.204Z,93.56
2018-12-06T13:36:49.528Z,92.81
2018-12-06T13:42:52.854Z,93.56
2018-12-06T13:48:56.175Z,93.75
2018-12-06T13:54:59.512Z,93.44
2018-12-06T14:01:03.208Z,94.16
2018-12-06T14:07:06.703Z,94.52
2018-12-06T14:13:23.626Z,94.63
2018-12-06T14:19:24.042Z,95.00
2018-12-06T14:25:27.363Z,94.92
2018-12-06T14:31:30.699Z,94.49
2018-12-06T14:37:34.032Z,95.41
2018-12-06T14:43:37.336Z,94.83
2018-12-06T14:49:40.737Z,95.25
2018-12-06T14:55:44.086Z,95.30
2018-12-06T15:01:47.395Z,95.57
2018-12-06T15:07:50.695Z,94.98
2018-12-06T15:13:54.037Z,95.07
2018-12-06T15:19:57.468Z,96.12
2018-12-06T15:26:00.804Z,95.83
2018-12-06T15:32:04.203Z,94.98
2018-12-06T15:38:07.518Z,94.78
2018-12-06T15:44:17.431Z,95.33
2018-12-06T15:50:20.771Z,96.10
2018-12-06T15:56:24.099Z,96.44
2018-12-06T16:02:27.428Z,95.64
2018-12-06T16:08:31.410Z,95.67
2018-12-06T16:14:34.718Z,96.28
2018-12-06T16:20:38.059Z,96.03
2018-12-06T16:26:41.384Z,95.57
2018-12-06T16:32:44.709Z,95.46
2018-12-06T16:38:48.305Z,95.29
2018-12-06T16:44:51.633Z,94.88
2018-12-06T16:50:55.022Z,93.83
2018-12-06T16:56:58.341Z,94.64
2018-12-06T17:03:01.646Z,94.46
2018-12-06T17:09:06.983Z,94.75
2018-12-06T17:15:10.369Z,94.81
2018-12-06T17:21:13.684Z,94.77
2018-12-06T17:27:17.012Z,93.88
2018-12-06T17:33:20.323Z,93.95
2018-12-06T17:39:23.670Z,94.23
2018-12-06T17:45:26.990Z,93.65
2018-12-06T17:51:30.303Z,93.04
2018-12-06T17:57:33.625Z,93.40
2018-12-06T18:03:36.958Z,92.39
2018-12-06T18:09:40.269Z,92.87
2018-12-06T18:15:43.583Z,92.81
2018-12-06T18:21:46.903Z,92.33
2018-12-06T18:27:50.219Z,92.91
2018-12-06T18:33:53.536Z,92.94
2018-12-06T18:39:56.870Z,92.27
2018-12-06T18:46:00.184Z,93.41
2018-12-06T18:52:03.517Z,92.44
2018-12-06T18:58:06.834Z,92.73
2018-12-06T19:04:10.156Z,92.88
2018-12-06T19:10:13.486Z,92.19
2018-12-06T19:16:16.800Z,92.38
2018-12-06T19:23:06.394Z,91.21
2018-12-06T19:29:09.729Z,91.77
2018-12-06T19:35:13.150Z,92.05
2018-12-06T19:41:16.508Z,91.31
2018-12-06T19:47:19.841Z,91.59
2018-12-06T19:53:23.180Z,90.89
2018-12-06T19:59:26.547Z,91.29
2018-12-06T20:05:29.919Z,90.87
2018-12-06T20:11:33.255Z,90.79
2018-12-06T20:17:36.655Z,91.70
2018-12-06T20:23:39.995Z,91.53
2018-12-06T20:29:43.327Z,90.78
2018-12-06T20:35:46.733Z,90.87
2018-12-06T20:41:50.073Z,91.10
2018-12-06T20:47:53.424Z,90.85
2018-12-06T20:53:56.769Z,89.85
2018-12-06T21:00:00.120Z,90.48
2018-12-06T21:06:03.463Z,90.82
2018-12-06T21:12:06.808Z,90.06
2018-12-06T21:18:10.161Z,90.21
2018-12-06T21:24:13.541Z,89.75
2018-12-06T21:30:16.887Z,90.41
2018-12-06T21:36:20.226Z,91.17
2018-12-06T21:42:23.563Z,90.48
2018-12-06T21:48:27.707Z,91.57
2018-12-06T21:54:31.041Z,91.69
2018-12-06T22:00:34.443Z,91.91
2018-12-06T22:06:37.771Z,91.75
2018-12-06T22:12:41.107Z,91.02
2018-12-06T22:18:44.461Z,91.95
2018-12-06T22:24:47.830Z,91.59
2018-12-06T22:30:51.171Z,91.34
2018-12-06T22:36:54.531Z,91.65
2018-12-06T22:42:57.863Z,90.99
2018-12-06T22:49:01.215Z,91.48
2018-12-06T22:55:05.217Z,90.78
2018-12-06T23:01:10.839Z,90.87
2018-12-06T23:07:14.167Z,90.54
2018-12-06T23:13:17.531Z,90.54
2018-12-06T23:19:20.875Z,90.91
2018-12-06T23:25:24.242Z,91.35
2018-12-06T23:31:27.705Z,90.54
2018-12-06T23:37:31.047Z,90.53
2018-12-06T23:43:34.487Z,89.74
2018-12-06T23:49:37.839Z,90.30
2018-12-06T23:55:41.169Z,89.79
